West Suffield, CT (06093)

5:43 PM EDT on July 23, 2017 (GMT -0400)
Taintor Street | | Change Station

Elev 177 ft 41.97 °N, 72.68 °W | Updated 4 minutes ago

Mostly Cloudy
Mostly Cloudy
84.0 °F
Feels Like 87 °F
N
0.6
Wind Variable Wind from SSW
Gusts 2.5 mph

Today
High -- | Low -- °F
--% Chance of Precip.
Yesterday
High -- | Low -- °F
Precip. -- in
Pressure 29.83 in
Visibility 10.0 miles
Clouds Scattered Clouds 5000 ft
Scattered Clouds 15000 ft
Scattered Clouds 20000 ft
Mostly Cloudy 25000 ft
Heat Index 87 °F
Dew Point 68 °F
Humidity 58%
Rainfall 0.00 in
Snow Depth Not available.
5:35 AM 8:18 PM
New Moon, 0% visible
METAR KBDL 232051Z 11006KT 10SM SCT050 SCT150 SCT200 BKN250 27/15 A2983 RMK AO2 SLP101 T02670150 56005
Pressure 29.83 in
Visibility 10.0 miles
Clouds Scattered Clouds 5000 ft
Scattered Clouds 15000 ft
Scattered Clouds 20000 ft
Mostly Cloudy 25000 ft
Heat Index 87 °F
Dew Point 68 °F
Humidity 58%
Rainfall 0.00 in
Snow Depth Not available.
5:35 AM 8:18 PM
New Moon, 0% visible
METAR KBDL 232051Z 11006KT 10SM SCT050 SCT150 SCT200 BKN250 27/15 A2983 RMK AO2 SLP101 T02670150 56005

Get Severe Weather Alerts

Thanks for signing up!

Be on the lookout for a verification email in your inbox.

You'll start receiving the daily forecast at 6 AM.

×

10-Day Weather Forecast

Almanac

Astronomy

Jul. 23, 2017 Rise Set
Actual Time
Civil Twilight
Nautical Twilight
Astronomical Twilight
Moon
Length of Visible Light
Length of Day
Tomorrow will be .
, % of the Moon is Illuminated

Today's Extremes

State Highs State Lows

Community

WunderPhotos

Category 6

Welcome to Category 6. This is the collective home for Weather Underground's featured writeups by Dr. Jeff Masters (right), Bob Henson (left), Chris Burt, and other regular contributors.

Nearby

Air Quality

  Air Quality AQ Index Pollutant
Not available.

Snow Depth

Station Depth Elevation

Earthquake Activity

City Distance Mag. Time & Date
Minimum magnitude displayed is 2.5.

Coastal Water Temperatures

Place Temperature

Stations

Nearby Weather Stations

Station Location Temp. Windchill Dew Point Humidity Wind Precip. Elev Updated Type
                   

Watches & Warnings

There are currently no watches in effect.